Terminal Aerodrome Forecast
Issued by NWS North Platte, NE

Home | Current Version | Previous Version | Graphics & Text | Print | Product List | Glossary On
Versions: 1 2 3 4 5 6 7 8 9 10 11 12 13 14 15 16
000
FTUS43 KLBF 240500
TAFVTN
TAF
KVTN 240522Z 2406/2506 25006KT P6SM BKN200
     FM241500 29009KT P6SM OVC200
     FM242300 VRB06KT P6SM SKC=

USA.gov is the U.S. government's official web portal to all federal, state and local government web resources and services.